Time;durP1;ratioP1;P1;durP2;ratioP2;P2;SDS_P1;SDS_P2;PMS_P1;PMS_P2;Temp;Humidity;BMP_temperature;BMP_pressure;BME280_temperature;BME280_humidity;BME280_pressure;Samples;Min_cycle;Max_cycle;Signal;HPM_P1;HPM_P2
2022/10/11 00:00:30;;;;;;;9.32;4.65;;;;;;;16.72;100.00;100601.53;5073637;28;20032;-65
2022/10/11 00:02:56;;;;;;;10.13;4.53;;;;;;;16.74;100.00;100602.31;5075548;28;20056;-65
2022/10/11 00:05:23;;;;;;;7.60;3.83;;;;;;;16.76;100.00;100609.38;5093715;28;20055;-64
2022/10/11 00:07:48;;;;;;;13.00;4.40;;;;;;;16.80;100.00;100596.66;5078865;28;20533;-65
2022/10/11 00:10:14;;;;;;;10.30;4.65;;;;;;;16.75;100.00;100604.06;5073403;28;20020;-65
2022/10/11 00:12:40;;;;;;;9.88;4.93;;;;;;;16.71;100.00;100606.03;5073084;28;20209;-65
2022/10/11 00:15:07;;;;;;;12.10;5.10;;;;;;;16.67;100.00;100595.50;5072957;28;20075;-65
2022/10/11 00:17:33;;;;;;;6.55;3.20;;;;;;;16.71;100.00;100597.97;5073130;28;20020;-65
2022/10/11 00:19:59;;;;;;;12.32;4.60;;;;;;;16.65;100.00;100597.41;5073409;28;20051;-65
2022/10/11 00:22:24;;;;;;;10.43;4.50;;;;;;;16.61;100.00;100606.53;5072859;28;20063;-65
2022/10/11 00:24:53;;;;;;;10.95;3.95;;;;;;;16.57;100.00;100604.94;5073364;28;20036;-65
2022/10/11 00:27:18;;;;;;;7.85;4.03;;;;;;;16.52;100.00;100594.41;5073056;28;20028;-65
2022/10/11 00:29:47;;;;;;;11.35;3.85;;;;;;;16.60;100.00;100604.81;5072600;28;20598;-66
2022/10/11 00:32:12;;;;;;;7.05;3.28;;;;;;;16.62;100.00;100602.91;5072708;28;20094;-64
2022/10/11 00:34:37;;;;;;;6.97;3.30;;;;;;;16.63;100.00;100599.28;5072659;28;20485;-64
2022/10/11 00:37:03;;;;;;;6.22;2.78;;;;;;;16.64;100.00;100606.38;5072945;28;20029;-66
2022/10/11 00:39:28;;;;;;;7.18;2.92;;;;;;;16.63;100.00;100605.53;5072757;28;20040;-65
2022/10/11 00:41:54;;;;;;;7.88;3.28;;;;;;;16.66;100.00;100604.50;5054570;28;20032;-65
2022/10/11 00:44:24;;;;;;;8.60;3.20;;;;;;;16.70;100.00;100611.47;5072645;28;20162;-65
2022/10/11 00:46:52;;;;;;;5.82;3.17;;;;;;;16.67;100.00;100609.78;5072681;28;20463;-65
2022/10/11 00:49:32;;;;;;;10.32;3.25;;;;;;;16.69;100.00;100610.59;5072643;28;20029;-65
2022/10/11 00:52:03;;;;;;;13.60;3.85;;;;;;;16.70;100.00;100606.09;5072247;28;20436;-65
2022/10/11 00:54:32;;;;;;;6.88;3.28;;;;;;;16.74;100.00;100605.00;5072525;28;20024;-64
2022/10/11 00:57:02;;;;;;;8.32;3.22;;;;;;;16.76;100.00;100612.06;5073975;28;20112;-64
2022/10/11 00:59:33;;;;;;;7.03;3.20;;;;;;;16.78;100.00;100618.22;5073663;28;20468;-65
2022/10/11 01:01:59;;;;;;;10.18;4.10;;;;;;;16.81;100.00;100615.38;5071104;28;20021;-61
2022/10/11 01:04:24;;;;;;;11.57;3.28;;;;;;;16.82;100.00;100611.75;5080862;28;20052;-61
2022/10/11 01:06:51;;;;;;;9.82;4.30;;;;;;;16.85;100.00;100616.13;5091546;28;20044;-61
2022/10/11 01:09:18;;;;;;;8.93;3.28;;;;;;;16.87;100.00;100616.88;5072230;28;20039;-61
2022/10/11 01:11:47;;;;;;;8.20;3.47;;;;;;;16.88;100.00;100615.97;5053971;28;20027;-62
2022/10/11 01:14:45;;;;;;;6.97;3.15;;;;;;;16.90;100.00;100625.69;5072225;28;20032;-61
2022/10/11 01:17:37;;;;;;;8.48;3.13;;;;;;;16.96;100.00;100619.13;5074397;28;20047;-61
2022/10/11 01:20:27;;;;;;;6.63;2.88;;;;;;;16.99;100.00;100627.06;5068777;28;20484;-61
2022/10/11 01:23:15;;;;;;;5.20;2.17;;;;;;;17.02;100.00;100626.88;5071751;28;20024;-61
2022/10/11 01:26:22;;;;;;;4.78;2.10;;;;;;;17.00;100.00;100623.44;5013709;28;20041;-61
2022/10/11 01:29:09;;;;;;;6.38;2.60;;;;;;;16.98;100.00;100628.00;5064828;28;20029;-61
2022/10/11 01:31:40;;;;;;;4.95;2.20;;;;;;;16.97;100.00;100632.50;5074152;28;20033;-61
2022/10/11 01:34:14;;;;;;;4.85;1.92;;;;;;;17.00;100.00;100626.13;5071849;28;20035;-61
2022/10/11 01:36:48;;;;;;;6.13;2.60;;;;;;;17.01;100.00;100625.16;5067489;28;20032;-61
2022/10/11 01:39:17;;;;;;;5.50;2.10;;;;;;;17.00;100.00;100631.50;5071541;28;20032;-61
2022/10/11 01:41:47;;;;;;;8.00;2.33;;;;;;;16.99;100.00;100624.34;5070984;28;20041;-60
2022/10/11 01:44:13;;;;;;;5.00;2.42;;;;;;;16.98;100.00;100628.84;5070917;28;20032;-61
2022/10/11 01:46:39;;;;;;;7.65;2.30;;;;;;;16.89;100.00;100618.56;5071359;28;20399;-60
2022/10/11 01:49:05;;;;;;;4.50;1.83;;;;;;;16.87;100.00;100617.78;5071569;28;20471;-61
2022/10/11 01:51:45;;;;;;;3.72;1.80;;;;;;;16.89;100.00;100623.94;5071450;28;20029;-61
2022/10/11 01:54:32;;;;;;;6.00;2.35;;;;;;;16.91;100.00;100626.56;5071066;28;20032;-61
2022/10/11 01:57:35;;;;;;;9.73;2.60;;;;;;;16.89;100.00;100626.63;5070323;28;20032;-61
2022/10/11 02:00:11;;;;;;;8.93;2.00;;;;;;;16.91;100.00;100626.56;5070235;28;20030;-61
2022/10/11 02:02:47;;;;;;;7.35;2.10;;;;;;;16.92;100.00;100628.28;5069969;28;20354;-61
2022/10/11 02:05:51;;;;;;;4.32;2.13;;;;;;;16.90;100.00;100622.97;5070229;28;20052;-61
2022/10/11 02:08:46;;;;;;;6.07;2.70;;;;;;;16.90;100.00;100631.06;4969530;28;20805;-61
2022/10/11 02:11:14;;;;;;;7.05;1.80;;;;;;;16.92;100.00;100628.28;5069646;28;20104;-60
2022/10/11 02:13:45;;;;;;;4.03;1.90;;;;;;;16.92;100.00;100631.84;5070749;28;20029;-61
2022/10/11 02:16:16;;;;;;;4.10;1.83;;;;;;;16.93;100.00;100635.41;5071485;28;20469;-61
2022/10/11 02:18:46;;;;;;;4.88;1.80;;;;;;;16.96;100.00;100628.09;5070826;28;20047;-61
2022/10/11 02:21:16;;;;;;;6.18;2.90;;;;;;;16.98;100.00;100631.53;5071406;28;20020;-61
2022/10/11 02:23:50;;;;;;;9.88;1.92;;;;;;;16.95;100.00;100625.47;5070504;28;20550;-61
2022/10/11 02:26:18;;;;;;;5.22;1.83;;;;;;;16.99;100.00;100635.13;5071179;28;20025;-61
2022/10/11 02:28:45;;;;;;;5.47;1.90;;;;;;;17.00;100.00;100642.25;5070657;28;20047;-60
2022/10/11 02:31:11;;;;;;;7.05;2.47;;;;;;;16.99;100.00;100640.50;5071197;28;20058;-61
2022/10/11 02:33:56;;;;;;;5.47;2.17;;;;;;;16.97;100.00;100634.31;5070596;28;20089;-61
2022/10/11 02:36:52;;;;;;;4.50;2.20;;;;;;;17.01;100.00;100633.22;5070730;28;20036;-61
2022/10/11 02:39:26;;;;;;;7.30;2.70;;;;;;;17.00;100.00;100637.72;5070550;28;20048;-61
2022/10/11 02:41:56;;;;;;;4.47;1.88;;;;;;;17.02;100.00;100641.22;5070592;28;20873;-62
2022/10/11 02:44:35;;;;;;;6.70;2.38;;;;;;;17.02;100.00;100629.59;5070258;28;20032;-61
2022/10/11 02:47:02;;;;;;;6.20;2.35;;;;;;;17.03;100.00;100636.72;5070772;28;20035;-60
2022/10/11 02:49:29;;;;;;;3.95;2.08;;;;;;;17.04;100.00;100633.94;5070013;28;20056;-61
2022/10/11 02:51:55;;;;;;;9.48;3.17;;;;;;;17.03;100.00;100642.09;5072730;28;20024;-62
2022/10/11 02:54:23;;;;;;;7.30;3.28;;;;;;;17.02;100.00;100640.31;5073627;28;20567;-62
2022/10/11 02:56:48;;;;;;;7.63;3.88;;;;;;;17.02;100.00;100640.31;5074399;28;20059;-60
2022/10/11 02:59:14;;;;;;;12.45;4.43;;;;;;;17.00;100.00;100640.41;5074181;28;20107;-60
2022/10/11 03:01:39;;;;;;;20.17;5.22;;;;;;;17.01;100.00;100646.66;5074039;28;20112;-59
2022/10/11 03:04:05;;;;;;;11.45;4.45;;;;;;;17.00;100.00;100647.63;5075168;28;20021;-60
2022/10/11 03:06:30;;;;;;;10.50;4.70;;;;;;;16.94;100.00;100643.41;5074788;28;20028;-60
2022/10/11 03:08:56;;;;;;;9.95;4.55;;;;;;;16.94;100.00;100637.16;5074301;28;20059;-60
2022/10/11 03:11:21;;;;;;;9.95;5.45;;;;;;;16.90;100.00;100635.56;5073863;28;20073;-60
2022/10/11 03:13:46;;;;;;;13.35;5.32;;;;;;;16.86;100.00;100640.22;5073395;28;20475;-60
2022/10/11 03:16:12;;;;;;;11.55;5.53;;;;;;;16.83;100.00;100644.88;5073859;28;20548;-61
2022/10/11 03:18:37;;;;;;;11.07;5.10;;;;;;;16.78;100.00;100637.03;5073475;28;20024;-61
2022/10/11 03:21:03;;;;;;;15.63;7.15;;;;;;;16.69;100.00;100640.16;5076250;28;20098;-61
2022/10/11 03:23:29;;;;;;;12.57;6.57;;;;;;;16.68;100.00;100634.84;5073779;28;20094;-62
2022/10/11 03:25:54;;;;;;;17.23;6.45;;;;;;;16.64;100.00;100636.81;5074469;28;20078;-62
2022/10/11 03:28:20;;;;;;;12.45;5.75;;;;;;;16.56;100.00;100636.31;5074047;28;20115;-62
2022/10/11 03:30:47;;;;;;;13.18;5.90;;;;;;;16.45;100.00;100626.97;5073477;28;20035;-62
2022/10/11 03:33:13;;;;;;;17.83;6.63;;;;;;;16.46;100.00;100634.09;5073912;28;20033;-61
2022/10/11 03:35:39;;;;;;;10.50;6.20;;;;;;;16.40;100.00;100640.63;5074412;28;20071;-61
2022/10/11 03:38:05;;;;;;;16.85;7.10;;;;;;;16.35;100.00;100637.28;5073518;28;20033;-62
2022/10/11 03:40:30;;;;;;;18.48;6.00;;;;;;;16.28;100.00;100640.28;5074268;28;20035;-62
2022/10/11 03:42:56;;;;;;;19.02;7.00;;;;;;;16.21;100.00;100644.22;5073569;28;20173;-62
2022/10/11 03:45:22;;;;;;;14.15;5.63;;;;;;;16.17;100.00;100645.28;5073881;28;20031;-62
2022/10/11 03:47:48;;;;;;;12.88;5.95;;;;;;;16.12;100.00;100641.94;5073830;28;20099;-61
2022/10/11 03:50:13;;;;;;;15.68;7.10;;;;;;;16.09;100.00;100650.13;5073329;28;20532;-62
2022/10/11 03:52:39;;;;;;;12.73;5.72;;;;;;;16.01;100.00;100657.66;5073779;28;20028;-62
2022/10/11 03:55:06;;;;;;;13.80;5.88;;;;;;;15.97;100.00;100662.28;5073524;28;20024;-61
2022/10/11 03:57:31;;;;;;;15.02;5.50;;;;;;;15.91;100.00;100665.25;5073618;28;20075;-62
2022/10/11 03:59:56;;;;;;;13.35;5.38;;;;;;;15.89;100.00;100660.88;5073510;28;20052;-62
2022/10/11 04:02:22;;;;;;;17.27;6.07;;;;;;;15.83;100.00;100664.72;5073699;28;20085;-62
2022/10/11 04:04:47;;;;;;;10.88;5.57;;;;;;;15.82;100.00;100658.47;5076925;28;20093;-61
2022/10/11 04:07:13;;;;;;;12.43;6.50;;;;;;;15.74;100.00;100660.63;5072842;28;20025;-61
2022/10/11 04:09:38;;;;;;;16.38;7.50;;;;;;;15.78;100.00;100659.53;5073238;28;20154;-63
2022/10/11 04:12:04;;;;;;;11.32;6.70;;;;;;;15.79;100.00;100671.16;5073367;28;20044;-62
2022/10/11 04:14:29;;;;;;;17.92;6.95;;;;;;;15.77;100.00;100667.66;5073460;28;20024;-61
2022/10/11 04:16:55;;;;;;;10.70;6.15;;;;;;;15.71;100.00;100654.50;5073286;28;20414;-59
2022/10/11 04:19:23;;;;;;;15.30;7.00;;;;;;;15.75;100.00;100667.72;5073243;28;20377;-59
2022/10/11 04:21:48;;;;;;;17.33;7.03;;;;;;;15.72;100.00;100675.91;5073265;28;20025;-59
2022/10/11 04:24:14;;;;;;;13.23;6.82;;;;;;;15.71;100.00;100671.50;5072977;28;20046;-61
2022/10/11 04:26:39;;;;;;;15.80;7.60;;;;;;;15.61;100.00;100667.47;5072642;28;20111;-61
2022/10/11 04:29:05;;;;;;;15.68;7.20;;;;;;;15.63;100.00;100672.75;5072839;28;20032;-61
2022/10/11 04:31:30;;;;;;;16.15;6.90;;;;;;;15.63;100.00;100681.66;5073131;28;20820;-60
2022/10/11 04:33:56;;;;;;;12.90;7.57;;;;;;;15.63;100.00;100673.59;5073123;28;20109;-61
2022/10/11 04:36:22;;;;;;;26.70;9.13;;;;;;;15.62;100.00;100682.59;5072795;28;20111;-61
2022/10/11 04:38:47;;;;;;;17.13;7.68;;;;;;;15.62;100.00;100693.31;5072864;28;20083;-61
2022/10/11 04:41:14;;;;;;;16.20;7.25;;;;;;;15.58;100.00;100683.66;5072710;28;20491;-61
2022/10/11 04:43:40;;;;;;;18.90;8.82;;;;;;;15.57;100.00;100683.72;5072398;28;20067;-61
2022/10/11 04:46:06;;;;;;;15.45;9.05;;;;;;;15.53;100.00;100684.81;5072520;28;20048;-61
2022/10/11 04:48:32;;;;;;;17.95;7.93;;;;;;;15.53;100.00;100692.84;5072709;28;20491;-61
2022/10/11 04:50:57;;;;;;;20.95;10.10;;;;;;;15.51;100.00;100700.06;5072175;28;20056;-60
2022/10/11 04:53:23;;;;;;;17.73;9.35;;;;;;;15.49;100.00;100696.56;5075073;28;20586;-61
2022/10/11 04:55:57;;;;;;;19.98;9.07;;;;;;;15.45;100.00;100695.81;5072557;28;20498;-61
2022/10/11 04:58:22;;;;;;;;;;;;;;;15.43;100.00;100695.03;5073353;28;20024;-59
2022/10/11 05:00:47;;;;;;;15.57;8.30;;;;;;;15.42;100.00;100689.75;5072198;28;19909;-60
2022/10/11 05:03:13;;;;;;;18.80;9.00;;;;;;;15.39;100.00;100700.56;5076541;28;20028;-60
2022/10/11 05:05:38;;;;;;;17.85;9.18;;;;;;;15.33;100.00;100701.69;5092325;28;20483;-60
2022/10/11 05:08:04;;;;;;;21.65;9.75;;;;;;;15.28;100.00;100703.69;5092330;28;20028;-60
2022/10/11 05:10:29;;;;;;;17.73;9.35;;;;;;;15.26;100.00;100712.69;5091802;28;20027;-61
2022/10/11 05:12:54;;;;;;;22.92;10.15;;;;;;;15.24;100.00;100710.09;5073513;28;20502;-60
2022/10/11 05:15:20;;;;;;;28.95;10.52;;;;;;;15.23;100.00;100715.50;5073919;28;20028;-61
2022/10/11 05:17:45;;;;;;;22.33;10.85;;;;;;;15.20;100.00;100721.00;5071964;28;20027;-61
2022/10/11 05:20:11;;;;;;;20.95;10.80;;;;;;;15.13;100.00;100711.44;5071497;28;20089;-61
2022/10/11 05:22:37;;;;;;;26.80;10.48;;;;;;;15.17;100.00;100726.50;5071938;28;20444;-60
2022/10/11 05:25:02;;;;;;;22.77;10.57;;;;;;;15.17;100.00;100726.50;5071822;28;20123;-61
2022/10/11 05:27:28;;;;;;;33.10;14.57;;;;;;;15.14;100.00;100727.47;5070276;28;20054;-62
2022/10/11 05:29:54;;;;;;;19.77;10.68;;;;;;;15.16;100.00;100730.97;5062241;28;20037;-60
2022/10/11 05:32:20;;;;;;;22.50;11.57;;;;;;;15.16;100.00;100733.66;5059563;28;20460;-60
2022/10/11 05:34:45;;;;;;;22.50;10.68;;;;;;;15.18;100.00;100737.16;5070088;28;20083;-60
2022/10/11 05:37:11;;;;;;;21.10;11.98;;;;;;;15.16;100.00;100739.00;5068919;28;20050;-60
2022/10/11 05:39:36;;;;;;;23.33;11.27;;;;;;;15.23;100.00;100743.19;5069152;28;20025;-60
2022/10/11 05:42:02;;;;;;;23.73;11.50;;;;;;;15.21;100.00;100750.41;5071909;28;20456;-60
2022/10/11 05:44:27;;;;;;;23.85;12.52;;;;;;;15.25;100.00;100741.34;5068682;28;20036;-60
2022/10/11 05:46:52;;;;;;;26.90;12.70;;;;;;;15.32;100.00;100741.97;5069281;28;20103;-60
2022/10/11 05:49:18;;;;;;;26.27;12.80;;;;;;;15.35;100.00;100747.19;5068984;28;20097;-61
2022/10/11 05:51:44;;;;;;;25.95;12.13;;;;;;;15.41;100.00;100747.84;5066815;28;20028;-60
2022/10/11 05:54:10;;;;;;;25.55;12.00;;;;;;;15.45;100.00;100749.44;5067398;28;20111;-60
2022/10/11 05:56:35;;;;;;;23.23;12.15;;;;;;;15.45;100.00;100760.19;5069511;28;20103;-61
2022/10/11 05:59:01;;;;;;;25.83;11.77;;;;;;;15.47;100.00;100750.28;5069325;28;20123;-61
2022/10/11 06:01:26;;;;;;;23.63;12.65;;;;;;;15.52;100.00;100755.44;5069941;28;20033;-60
2022/10/11 06:03:52;;;;;;;29.27;13.63;;;;;;;15.52;100.00;100761.69;5079582;28;20031;-60
2022/10/11 06:06:18;;;;;;;28.60;13.18;;;;;;;15.56;100.00;100763.31;5073081;28;20074;-60
2022/10/11 06:08:45;;;;;;;25.00;12.45;;;;;;;15.53;100.00;100766.09;5069481;28;20029;-61
2022/10/11 06:11:14;;;;;;;25.33;12.50;;;;;;;15.52;100.00;100761.69;5068858;28;20742;-60
2022/10/11 06:13:41;;;;;;;25.48;13.30;;;;;;;15.53;100.00;100774.13;5050943;28;20032;-61
2022/10/11 06:16:06;;;;;;;25.10;12.80;;;;;;;15.53;100.00;100776.81;5069108;28;20028;-61
2022/10/11 06:18:32;;;;;;;29.38;12.63;;;;;;;15.51;100.00;100778.72;5069253;28;20377;-60
2022/10/11 06:20:58;;;;;;;23.75;12.35;;;;;;;15.44;100.00;100776.31;5051423;28;20025;-60
2022/10/11 06:23:24;;;;;;;22.67;10.68;;;;;;;15.41;100.00;100782.69;5069461;28;20036;-61
2022/10/11 06:26:04;;;;;;;23.83;10.82;;;;;;;15.45;100.00;100792.34;5068144;28;20369;-61
2022/10/11 06:28:30;;;;;;;23.58;11.43;;;;;;;15.44;100.00;100785.25;5066709;28;20067;-61
2022/10/11 06:30:56;;;;;;;25.73;11.45;;;;;;;15.48;100.00;100781.53;5061588;28;20119;-61
2022/10/11 06:33:23;;;;;;;18.02;9.63;;;;;;;15.45;100.00;100795.03;5068287;28;20028;-60
2022/10/11 06:35:49;;;;;;;22.73;11.30;;;;;;;15.49;100.00;100796.66;5059599;28;20039;-60
2022/10/11 06:38:14;;;;;;;20.90;9.18;;;;;;;15.47;100.00;100793.16;5062840;28;20107;-60
2022/10/11 06:40:40;;;;;;;24.55;10.95;;;;;;;15.49;100.00;100796.66;5063902;28;20081;-60
2022/10/11 06:43:05;;;;;;;17.52;9.30;;;;;;;15.55;100.00;100807.13;5052426;28;20046;-60
2022/10/11 06:45:31;;;;;;;17.88;9.27;;;;;;;15.60;100.00;100802.47;5066218;28;20136;-61
2022/10/11 06:47:56;;;;;;;18.58;8.65;;;;;;;15.56;100.00;100811.59;5075928;28;20507;-60
2022/10/11 06:50:22;;;;;;;15.13;9.27;;;;;;;15.59;100.00;100795.38;5057588;28;20033;-61
2022/10/11 06:52:47;;;;;;;18.80;7.28;;;;;;;15.67;100.00;100814.69;5068517;28;20036;-60
2022/10/11 06:55:13;;;;;;;13.60;7.00;;;;;;;15.65;100.00;100807.63;5052337;28;20025;-61
2022/10/11 06:57:38;;;;;;;14.77;6.43;;;;;;;15.57;100.00;100815.13;5059084;28;20029;-60
2022/10/11 07:00:05;;;;;;;10.50;5.43;;;;;;;15.59;100.00;100821.31;5048315;28;20036;-61
2022/10/11 07:02:30;;;;;;;11.75;6.22;;;;;;;15.59;100.00;100822.19;5054150;28;20169;-61
2022/10/11 07:04:56;;;;;;;12.95;5.10;;;;;;;15.58;100.00;100831.13;5069211;28;20115;-60
2022/10/11 07:07:21;;;;;;;10.73;4.95;;;;;;;15.58;100.00;100825.78;5058225;28;20025;-61
2022/10/11 07:09:46;;;;;;;12.90;4.75;;;;;;;15.55;100.00;100842.00;5066386;28;20376;-61
2022/10/11 07:12:12;;;;;;;8.10;4.43;;;;;;;15.51;100.00;100837.72;5067196;28;20039;-60
2022/10/11 07:14:38;;;;;;;9.68;4.50;;;;;;;15.47;100.00;100841.44;5062200;28;20056;-60
2022/10/11 07:17:04;;;;;;;7.90;3.75;;;;;;;15.45;100.00;100845.97;5067108;28;20861;-60
2022/10/11 07:19:29;;;;;;;8.60;4.40;;;;;;;15.47;100.00;100849.47;5055368;28;20029;-60
2022/10/11 07:21:54;;;;;;;8.07;4.15;;;;;;;15.58;100.00;100849.91;5064048;28;20056;-61
2022/10/11 07:24:20;;;;;;;10.77;4.38;;;;;;;15.61;100.00;100849.81;5063334;28;20024;-61
2022/10/11 07:26:45;;;;;;;10.95;4.22;;;;;;;15.59;99.01;100848.13;5052569;28;20033;-61
2022/10/11 07:29:11;;;;;;;7.28;3.28;;;;;;;15.56;97.51;100853.59;5066685;28;20073;-59
2022/10/11 07:31:39;;;;;;;9.82;2.90;;;;;;;15.65;97.42;100851.44;5053345;28;20033;-61
2022/10/11 07:34:05;;;;;;;7.78;3.15;;;;;;;15.64;96.73;100855.06;5053843;28;20051;-60
2022/10/11 07:36:30;;;;;;;8.10;3.13;;;;;;;15.74;95.99;100859.13;5060110;28;20032;-61
2022/10/11 07:38:56;;;;;;;11.82;2.97;;;;;;;15.87;95.08;100858.59;5057702;28;20032;-61
2022/10/11 07:41:21;;;;;;;6.82;3.53;;;;;;;15.94;94.38;100860.09;5059534;28;20399;-61
2022/10/11 07:43:48;;;;;;;5.68;2.58;;;;;;;15.92;92.79;100852.13;5046723;28;20025;-61
2022/10/11 07:46:14;;;;;;;6.28;2.60;;;;;;;15.93;92.19;100853.84;5061243;28;20026;-60
2022/10/11 07:48:40;;;;;;;5.45;2.40;;;;;;;15.87;91.50;100861.28;5053916;28;20419;-60
2022/10/11 07:51:16;;;;;;;6.25;2.42;;;;;;;15.80;91.15;100853.50;5057703;28;20025;-62
2022/10/11 07:53:44;;;;;;;7.53;2.55;;;;;;;15.67;91.79;100851.38;5058799;28;20032;-62
2022/10/11 07:56:12;;;;;;;6.72;2.20;;;;;;;15.66;92.56;100860.34;5054020;28;20060;-61
2022/10/11 07:58:39;;;;;;;7.10;2.78;;;;;;;15.68;92.16;100859.34;5067492;28;20074;-61
2022/10/11 08:01:05;;;;;;;7.93;2.00;;;;;;;15.72;91.67;100865.47;5054423;28;20036;-61
2022/10/11 08:03:31;;;;;;;5.22;2.38;;;;;;;15.75;91.04;100855.50;5060159;28;21069;-60
2022/10/11 08:06:06;;;;;;;8.90;2.08;;;;;;;15.97;90.13;100860.84;5054048;28;20049;-60
2022/10/11 08:08:31;;;;;;;8.07;2.17;;;;;;;16.16;90.30;100869.03;5059666;28;20087;-60
2022/10/11 08:10:57;;;;;;;3.85;1.85;;;;;;;16.33;87.70;100863.81;5058809;28;20020;-61
2022/10/11 08:13:23;;;;;;;6.20;1.58;;;;;;;16.46;85.35;100865.06;5054849;28;20036;-61
2022/10/11 08:15:49;;;;;;;7.32;2.13;;;;;;;16.43;83.66;100866.03;5054331;28;20033;-60
2022/10/11 08:18:14;;;;;;;7.88;1.70;;;;;;;16.51;83.18;100874.69;5056576;28;20029;-60
2022/10/11 08:20:40;;;;;;;3.83;1.80;;;;;;;16.50;82.55;100877.44;5054129;28;20020;-61
2022/10/11 08:23:06;;;;;;;4.38;1.63;;;;;;;16.52;80.82;100880.94;5058142;28;20020;-62
2022/10/11 08:25:38;;;;;;;5.53;1.40;;;;;;;16.49;79.41;100873.00;5046869;28;20062;-61
2022/10/11 08:28:04;;;;;;;6.80;2.38;;;;;;;16.50;79.82;100872.06;5055553;28;20506;-61
2022/10/11 08:30:30;;;;;;;7.70;1.30;;;;;;;16.57;77.93;100877.09;5056319;28;20032;-61
2022/10/11 08:32:56;;;;;;;3.45;1.33;;;;;;;16.69;77.04;100878.38;5056974;28;20033;-61
2022/10/11 08:35:21;;;;;;;3.50;1.30;;;;;;;17.53;74.83;100873.63;5053675;28;20028;-61
2022/10/11 08:37:46;;;;;;;4.80;1.55;;;;;;;18.32;72.01;100876.84;5053659;28;20090;-61
2022/10/11 08:40:19;;;;;;;4.72;1.45;;;;;;;18.69;69.95;100867.78;5056920;28;20024;-60
2022/10/11 08:42:54;;;;;;;7.78;1.63;;;;;;;18.90;66.28;100870.22;5054153;28;20958;-61
2022/10/11 08:45:34;;;;;;;4.03;0.93;;;;;;;18.94;64.74;100873.63;5055757;28;20079;-61
2022/10/11 08:48:43;;;;;;;6.65;1.67;;;;;;;19.05;64.66;100871.22;5057130;28;20028;-61
2022/10/11 08:51:23;;;;;;;3.90;1.33;;;;;;;19.10;63.91;100869.16;5053690;28;20879;-60
2022/10/11 08:54:03;;;;;;;5.88;1.67;;;;;;;19.50;65.24;100869.59;5052719;28;20033;-60
2022/10/11 08:56:31;;;;;;;5.10;1.60;;;;;;;20.06;63.90;100874.53;5052834;28;20839;-60
2022/10/11 08:59:03;;;;;;;6.55;1.70;;;;;;;20.62;62.52;100872.09;5054233;28;20043;-61
2022/10/11 09:01:30;;;;;;;8.20;1.65;;;;;;;21.12;59.81;100871.69;5054337;28;20033;-61
2022/10/11 09:03:58;;;;;;;6.07;1.30;;;;;;;21.61;57.05;100870.34;5053924;28;20040;-61
2022/10/11 09:06:57;;;;;;;4.20;1.25;;;;;;;21.98;55.93;100877.84;5054247;28;20486;-61
2022/10/11 09:09:33;;;;;;;8.85;2.38;;;;;;;21.69;57.07;100878.84;4975983;28;20089;-60
2022/10/11 09:12:25;;;;;;;7.97;1.50;;;;;;;20.42;58.52;100883.22;5059214;28;20025;-60
2022/10/11 09:15:08;;;;;;;4.68;1.38;;;;;;;19.77;61.21;100880.69;5027940;28;20066;-60
2022/10/11 09:18:02;;;;;;;6.53;1.88;;;;;;;19.01;64.27;100884.00;5057354;28;20797;-60
2022/10/11 09:20:55;;;;;;;8.65;1.50;;;;;;;18.37;67.12;100881.06;5054118;28;20439;-61
2022/10/11 09:23:35;;;;;;;7.80;1.75;;;;;;;17.94;68.30;100889.53;5051627;28;20021;-62
2022/10/11 09:26:10;;;;;;;4.38;1.83;;;;;;;17.92;71.08;100887.88;5052648;28;20756;-62
2022/10/11 09:28:44;;;;;;;7.28;1.77;;;;;;;17.80;69.69;100881.25;5060402;28;20040;-63
2022/10/11 09:31:10;;;;;;;4.90;1.63;;;;;;;17.66;72.36;100867.56;5058595;28;20028;-63
2022/10/11 09:33:37;;;;;;;4.03;1.90;;;;;;;17.51;72.07;100878.22;5058125;28;20047;-61
2022/10/11 09:36:45;;;;;;;8.25;1.88;;;;;;;17.39;73.55;100882.31;5052903;28;20825;-62
2022/10/11 09:39:10;;;;;;;7.22;2.15;;;;;;;17.39;73.57;100882.31;5058171;28;20037;-63
2022/10/11 09:41:52;;;;;;;4.00;1.60;;;;;;;17.62;75.19;100879.44;5056808;28;20012;-63
2022/10/11 09:44:24;;;;;;;5.38;2.28;;;;;;;17.73;74.78;100879.81;5051667;28;20040;-63
2022/10/11 09:46:54;;;;;;;5.55;1.80;;;;;;;17.83;73.72;100872.16;5054558;28;20052;-63
2022/10/11 09:49:24;;;;;;;7.88;2.00;;;;;;;17.90;73.12;100879.88;5053005;28;20040;-63
2022/10/11 09:51:59;;;;;;;5.22;1.50;;;;;;;18.00;73.68;100881.16;5053671;28;20514;-62
2022/10/11 09:54:42;;;;;;;6.28;1.65;;;;;;;18.26;73.44;100878.03;5052231;28;20103;-62
2022/10/11 09:57:32;;;;;;;9.10;2.00;;;;;;;18.61;73.38;100876.28;5053884;28;20029;-62
2022/10/11 10:00:20;;;;;;;7.00;2.30;;;;;;;18.75;70.82;100881.81;5051463;28;20025;-62
2022/10/11 10:02:51;;;;;;;5.82;1.70;;;;;;;18.93;71.21;100880.84;5054103;28;20029;-62
2022/10/11 10:05:20;;;;;;;6.75;2.13;;;;;;;19.07;71.53;100866.63;5052657;28;20109;-62
2022/10/11 10:08:09;;;;;;;7.60;1.95;;;;;;;19.28;70.91;100871.72;5050552;28;20029;-62
2022/10/11 10:10:44;;;;;;;5.47;2.22;;;;;;;19.59;67.92;100881.72;5056190;28;20048;-62
2022/10/11 10:13:50;;;;;;;9.15;2.78;;;;;;;20.31;68.35;100877.53;5052985;28;20032;-62
2022/10/11 10:16:36;;;;;;;9.15;3.05;;;;;;;21.08;60.81;100874.69;5048653;28;20049;-62
2022/10/11 10:19:22;;;;;;;7.90;3.30;;;;;;;21.26;60.24;100873.53;5050869;28;20079;-62
2022/10/11 10:21:52;;;;;;;6.60;3.50;;;;;;;21.27;61.64;100880.72;5054594;28;20017;-62
2022/10/11 10:24:27;;;;;;;9.27;3.92;;;;;;;21.10;61.78;100872.78;5052448;28;20056;-62
2022/10/11 10:27:29;;;;;;;10.73;3.90;;;;;;;20.84;61.46;100871.63;5051510;28;20023;-62
2022/10/11 10:30:06;;;;;;;11.05;3.67;;;;;;;21.07;61.28;100868.41;4991827;28;20033;-62
2022/10/11 10:32:44;;;;;;;9.43;3.90;;;;;;;21.38;61.82;100870.97;5043989;28;20076;-62
2022/10/11 10:35:24;;;;;;;11.70;3.95;;;;;;;21.49;60.18;100859.44;5055371;28;20365;-62
2022/10/11 10:38:18;;;;;;;11.75;3.75;;;;;;;21.40;59.59;100865.44;5051934;28;20029;-62
2022/10/11 10:40:49;;;;;;;9.48;3.35;;;;;;;21.59;60.16;100866.00;5054215;28;20555;-62
2022/10/11 10:43:21;;;;;;;10.10;4.00;;;;;;;21.60;59.45;100868.59;5050393;28;20044;-62
2022/10/11 10:46:02;;;;;;;8.05;3.22;;;;;;;21.79;58.32;100873.75;5050867;28;20040;-62
2022/10/11 10:48:59;;;;;;;8.20;3.13;;;;;;;22.08;58.19;100869.97;5051743;28;20112;-62
2022/10/11 10:51:44;;;;;;;8.93;2.97;;;;;;;22.28;58.04;100868.63;5046717;28;20407;-62
2022/10/11 10:54:31;;;;;;;9.15;3.35;;;;;;;22.04;57.90;100874.72;5054674;28;20737;-63
2022/10/11 10:57:01;;;;;;;9.57;2.72;;;;;;;21.97;59.89;100869.81;5052468;28;20522;-62
2022/10/11 10:59:45;;;;;;;9.60;2.97;;;;;;;21.93;60.15;100877.28;5051660;28;20874;-62
2022/10/11 11:02:45;;;;;;;9.05;2.53;;;;;;;21.77;60.23;100870.25;5051812;28;20119;-63
2022/10/11 11:05:31;;;;;;;8.18;2.50;;;;;;;21.71;60.61;100862.50;5016849;28;20056;-63
2022/10/11 11:08:02;;;;;;;6.60;3.08;;;;;;;21.65;61.64;100866.47;5050283;28;20024;-61
2022/10/11 11:11:09;;;;;;;8.45;3.95;;;;;;;21.59;61.69;100860.56;5054187;28;20039;-61
2022/10/11 11:13:53;;;;;;;9.20;2.92;;;;;;;21.47;62.46;100855.94;5026514;28;20496;-61
2022/10/11 11:16:33;;;;;;;10.07;3.40;;;;;;;21.01;64.04;100855.28;5059399;28;20067;-61
2022/10/11 11:19:05;;;;;;;7.53;2.75;;;;;;;21.11;64.99;100860.97;5055389;28;20910;-61
2022/10/11 11:21:44;;;;;;;9.40;2.67;;;;;;;21.72;62.48;100850.69;5056150;28;20036;-62
2022/10/11 11:24:24;;;;;;;8.18;3.10;;;;;;;22.53;60.77;100858.78;5056755;28;20053;-62
2022/10/11 11:26:59;;;;;;;5.20;2.85;;;;;;;23.35;57.72;100846.59;5046571;28;20530;-63
2022/10/11 11:29:44;;;;;;;8.98;3.03;;;;;;;23.97;54.32;100849.28;5053214;28;20175;-62
2022/10/11 11:32:19;;;;;;;8.80;2.95;;;;;;;24.21;52.45;100850.19;5056271;28;20085;-62
2022/10/11 11:35:35;;;;;;;6.93;3.00;;;;;;;24.00;54.08;100849.09;5055041;28;20107;-63